createdAt,value
2018-02-24T00:00:10.872Z,42.20
2018-02-24T00:02:38.402Z,41.73
2018-02-24T00:05:06.054Z,41.70
2018-02-24T00:07:34.514Z,41.37
2018-02-24T00:10:02.104Z,46.63
2018-02-24T00:12:29.688Z,42.47
2018-02-24T00:14:57.340Z,40.33
2018-02-24T00:17:24.883Z,44.43
2018-02-24T00:19:52.422Z,40.87
2018-02-24T00:22:19.993Z,36.57
2018-02-24T00:24:47.563Z,43.37
2018-02-24T00:27:15.138Z,40.20
2018-02-24T00:29:42.788Z,39.20
2018-02-24T00:32:10.380Z,39.33
2018-02-24T00:34:37.983Z,40.43
2018-02-24T00:37:05.532Z,36.37
2018-02-24T00:39:33.102Z,42.40
2018-02-24T00:42:00.652Z,40.77
2018-02-24T00:44:28.257Z,43.80
2018-02-24T00:46:55.790Z,40.90
2018-02-24T00:49:23.354Z,44.67
2018-02-24T00:51:51.016Z,41.73
2018-02-24T00:54:18.644Z,44.00
2018-02-24T00:56:46.200Z,48.20
2018-02-24T00:59:13.868Z,49.13
2018-02-24T01:01:41.499Z,43.83
2018-02-24T01:04:09.174Z,45.63
2018-02-24T01:06:36.739Z,48.13
2018-02-24T01:09:04.312Z,48.93
2018-02-24T01:11:31.911Z,46.53
2018-02-24T01:13:59.442Z,54.03
2018-02-24T01:16:27.028Z,48.10
2018-02-24T01:18:54.615Z,51.37
2018-02-24T01:21:22.263Z,50.27
2018-02-24T01:23:49.859Z,47.87
2018-02-24T01:26:17.447Z,48.20
2018-02-24T01:28:45.028Z,53.90
2018-02-24T01:31:12.615Z,49.37
2018-02-24T01:33:40.151Z,46.40
2018-02-24T01:36:07.726Z,50.70
2018-02-24T01:38:35.265Z,48.23
2018-02-24T01:41:02.908Z,48.20
2018-02-24T01:43:30.448Z,57.87
2018-02-24T01:45:59.036Z,57.20
2018-02-24T01:48:26.618Z,51.53
2018-02-24T01:50:55.140Z,45.60
2018-02-24T01:53:22.670Z,56.13
2018-02-24T01:55:50.271Z,52.53
2018-02-24T01:58:17.819Z,59.03
2018-02-24T02:00:45.484Z,55.33
2018-02-24T02:03:13.061Z,60.40
2018-02-24T02:05:40.660Z,56.80
2018-02-24T02:08:08.197Z,59.40
2018-02-24T02:10:36.731Z,54.20
2018-02-24T02:13:04.280Z,51.77
2018-02-24T02:15:31.825Z,58.40
2018-02-24T02:18:00.394Z,59.17
2018-02-24T02:20:27.972Z,52.87
2018-02-24T02:22:55.615Z,62.27
2018-02-24T02:25:23.166Z,59.40
2018-02-24T02:27:50.738Z,60.23
2018-02-24T02:30:18.345Z,60.57
2018-02-24T02:32:45.887Z,65.60
2018-02-24T02:35:13.426Z,56.80
2018-02-24T02:37:40.999Z,59.30
2018-02-24T02:40:08.543Z,59.83
2018-02-24T02:42:36.122Z,60.03
2018-02-24T02:45:03.672Z,62.73
2018-02-24T02:47:31.272Z,64.60
2018-02-24T02:49:58.863Z,62.53
2018-02-24T02:52:26.408Z,60.73
2018-02-24T02:54:53.986Z,63.87
2018-02-24T02:57:21.578Z,59.93
2018-02-24T02:59:49.131Z,77.23
2018-02-24T03:02:16.737Z,63.10
2018-02-24T03:04:44.283Z,60.70
2018-02-24T03:07:11.952Z,62.70
2018-02-24T03:09:39.486Z,66.23
2018-02-24T03:12:07.084Z,69.47
2018-02-24T03:14:34.696Z,65.83
2018-02-24T03:17:02.274Z,68.73
2018-02-24T03:19:29.851Z,69.33
2018-02-24T03:21:57.448Z,64.60
2018-02-24T03:24:25.095Z,58.80
2018-02-24T03:26:52.693Z,71.53
2018-02-24T03:29:20.275Z,62.90
2018-02-24T03:31:47.820Z,64.03
2018-02-24T03:34:15.362Z,69.83
2018-02-24T03:36:42.932Z,85.20
2018-02-24T03:39:10.473Z,62.10
2018-02-24T03:41:38.156Z,70.47
2018-02-24T03:44:05.693Z,69.80
2018-02-24T03:46:33.247Z,76.63
2018-02-24T03:49:00.887Z,62.03
2018-02-24T03:51:28.439Z,78.67
2018-02-24T03:53:56.040Z,72.27
2018-02-24T03:56:24.505Z,63.63
2018-02-24T03:58:52.088Z,78.03
2018-02-24T04:01:19.700Z,69.17
2018-02-24T04:03:47.288Z,67.27
2018-02-24T04:06:14.852Z,80.37
2018-02-24T04:08:42.391Z,65.20
2018-02-24T04:11:09.975Z,68.80
2018-02-24T04:13:37.551Z,64.00
2018-02-24T04:16:05.132Z,61.47
2018-02-24T04:18:32.679Z,67.53
2018-02-24T04:21:00.258Z,70.60
2018-02-24T04:23:28.753Z,70.83
2018-02-24T04:25:56.287Z,66.23
2018-02-24T04:28:23.864Z,65.07
2018-02-24T04:30:52.374Z,62.93
2018-02-24T04:33:19.910Z,69.43
2018-02-24T04:35:47.451Z,73.83
2018-02-24T04:38:15.035Z,61.10
2018-02-24T04:40:42.591Z,67.27
2018-02-24T04:43:10.243Z,65.37
2018-02-24T04:45:37.814Z,73.90
2018-02-24T04:48:05.359Z,73.47
2018-02-24T04:50:32.929Z,73.63
2018-02-24T04:53:00.493Z,70.90
2018-02-24T04:55:28.035Z,73.90
2018-02-24T04:57:55.622Z,70.43
2018-02-24T05:00:23.159Z,65.00
2018-02-24T05:02:50.689Z,71.20
2018-02-24T05:05:18.332Z,67.37
2018-02-24T05:07:45.868Z,73.57
2018-02-24T05:10:13.459Z,74.77
2018-02-24T05:12:41.044Z,84.60
2018-02-24T05:15:08.627Z,79.50
2018-02-24T05:17:36.159Z,87.87
2018-02-24T05:20:03.804Z,75.97
2018-02-24T05:22:31.448Z,78.50
2018-02-24T05:24:58.978Z,92.33
2018-02-24T05:27:26.561Z,77.10
2018-02-24T05:29:54.090Z,83.77
2018-02-24T05:32:21.635Z,84.83
2018-02-24T05:34:49.241Z,79.30
2018-02-24T05:37:16.784Z,74.50
2018-02-24T05:39:44.310Z,84.43
2018-02-24T05:42:11.891Z,80.60
2018-02-24T05:44:39.432Z,73.93
2018-02-24T05:47:07.005Z,73.50
2018-02-24T05:49:34.636Z,69.07
2018-02-24T05:52:02.180Z,75.77
2018-02-24T05:54:29.759Z,66.77
2018-02-24T05:56:57.337Z,72.03
2018-02-24T05:59:24.874Z,76.17
2018-02-24T06:01:52.484Z,69.43
2018-02-24T06:04:20.046Z,72.37
2018-02-24T06:06:47.592Z,70.93
2018-02-24T06:09:15.185Z,72.47
2018-02-24T06:11:42.717Z,99.13
2018-02-24T06:14:10.251Z,79.57
2018-02-24T06:16:38.679Z,81.40
2018-02-24T06:19:06.245Z,80.97
2018-02-24T06:21:33.872Z,77.27
2018-02-24T06:24:01.444Z,85.73
2018-02-24T06:26:29.121Z,83.83
2018-02-24T06:28:56.655Z,75.93
2018-02-24T06:31:24.200Z,78.17
2018-02-24T06:33:51.779Z,83.13
2018-02-24T06:36:19.336Z,78.37
2018-02-24T06:38:46.935Z,72.17
2018-02-24T06:41:14.557Z,74.13
2018-02-24T06:43:42.134Z,83.83
2018-02-24T06:46:09.667Z,73.17
2018-02-24T06:48:37.219Z,77.37
2018-02-24T06:51:04.794Z,82.97
2018-02-24T06:53:32.331Z,91.77
2018-02-24T06:56:00.701Z,76.40
2018-02-24T06:58:28.243Z,83.07
2018-02-24T07:00:55.787Z,87.17
2018-02-24T07:03:23.362Z,80.50
2018-02-24T07:05:50.912Z,77.67
2018-02-24T07:08:18.554Z,87.23
2018-02-24T07:10:46.152Z,91.93
2018-02-24T07:13:13.750Z,90.47
2018-02-24T07:15:41.345Z,85.13
2018-02-24T07:18:08.924Z,92.70
2018-02-24T07:20:37.319Z,84.40
2018-02-24T07:23:04.864Z,85.17
2018-02-24T07:25:32.443Z,86.10
2018-02-24T07:28:00.105Z,81.57
2018-02-24T07:30:27.673Z,88.67
2018-02-24T07:32:55.351Z,83.10
2018-02-24T07:35:23.137Z,80.27
2018-02-24T07:37:50.681Z,87.27
2018-02-24T07:40:18.272Z,80.17
2018-02-24T07:42:45.868Z,76.00
2018-02-24T07:45:13.428Z,73.83
2018-02-24T07:47:40.986Z,81.67
2018-02-24T07:50:08.562Z,87.47
2018-02-24T07:52:36.112Z,80.27
2018-02-24T07:55:03.688Z,77.50
2018-02-24T07:57:31.235Z,82.37
2018-02-24T07:59:58.819Z,86.33
2018-02-24T08:02:26.467Z,77.30
2018-02-24T08:04:54.087Z,79.20
2018-02-24T08:07:21.735Z,78.00
2018-02-24T08:09:49.272Z,91.20
2018-02-24T08:12:16.842Z,92.07
2018-02-24T08:14:44.415Z,79.20
2018-02-24T08:17:11.963Z,80.07
2018-02-24T08:19:39.547Z,88.53
2018-02-24T08:22:07.148Z,94.37
2018-02-24T08:24:34.722Z,86.90
2018-02-24T08:27:02.260Z,87.90
2018-02-24T08:29:29.916Z,76.97
2018-02-24T08:31:57.454Z,87.37
2018-02-24T08:34:25.059Z,79.17
2018-02-24T08:36:52.648Z,83.60
2018-02-24T08:39:20.215Z,80.93
2018-02-24T08:41:47.804Z,79.37
2018-02-24T08:44:15.392Z,74.17
2018-02-24T08:46:42.934Z,83.37
2018-02-24T08:49:10.480Z,78.77
2018-02-24T08:51:38.062Z,83.37
2018-02-24T08:54:05.653Z,70.67
2018-02-24T08:56:33.191Z,86.20
2018-02-24T08:59:00.782Z,97.70
2018-02-24T09:01:28.436Z,88.40
2018-02-24T09:03:55.980Z,80.93
2018-02-24T09:06:23.575Z,78.57
2018-02-24T09:08:51.108Z,84.57
2018-02-24T09:11:18.738Z,74.93
2018-02-24T09:13:46.284Z,81.87
2018-02-24T09:16:13.880Z,82.10
2018-02-24T09:18:41.429Z,81.93
2018-02-24T09:21:09.116Z,77.13
2018-02-24T09:23:36.655Z,76.63
2018-02-24T09:26:04.309Z,72.60
2018-02-24T09:28:31.862Z,77.67
2018-02-24T09:30:59.445Z,71.80
2018-02-24T09:33:27.059Z,67.30
2018-02-24T09:35:54.658Z,69.73
2018-02-24T09:38:23.173Z,79.00
2018-02-24T09:40:51.615Z,67.93
2018-02-24T09:43:19.208Z,70.13
2018-02-24T09:45:46.751Z,72.67
2018-02-24T09:48:14.353Z,70.10
2018-02-24T09:50:41.937Z,67.90
2018-02-24T09:53:09.486Z,68.97
2018-02-24T09:55:37.032Z,61.67
2018-02-24T09:58:04.628Z,63.53
2018-02-24T10:00:32.216Z,60.57
2018-02-24T10:02:59.758Z,63.07
2018-02-24T10:05:27.327Z,64.93
2018-02-24T10:07:55.597Z,66.33
2018-02-24T10:10:23.184Z,63.50
2018-02-24T10:12:50.832Z,58.70
2018-02-24T10:15:19.311Z,59.33
2018-02-24T10:17:46.882Z,60.07
2018-02-24T10:20:14.426Z,70.80
2018-02-24T10:22:42.682Z,64.03
2018-02-24T10:25:10.323Z,62.87
2018-02-24T10:27:37.931Z,68.00
2018-02-24T10:30:05.538Z,66.13
2018-02-24T10:32:33.078Z,64.23
2018-02-24T10:35:00.676Z,64.37
2018-02-24T10:37:28.284Z,65.90
2018-02-24T10:39:55.814Z,66.30
2018-02-24T10:42:23.398Z,60.53
2018-02-24T10:44:50.950Z,63.23
2018-02-24T10:47:19.299Z,64.57
2018-02-24T10:49:46.840Z,64.17
2018-02-24T10:52:14.429Z,63.83
2018-02-24T10:54:42.864Z,67.87
2018-02-24T10:57:10.575Z,74.23
2018-02-24T10:59:38.113Z,73.10
2018-02-24T11:02:05.695Z,66.43
2018-02-24T11:04:33.230Z,66.30
2018-02-24T11:07:00.816Z,73.97
2018-02-24T11:09:28.359Z,61.57
2018-02-24T11:11:56.044Z,72.93
2018-02-24T11:14:24.427Z,65.13
2018-02-24T11:16:51.962Z,62.77
2018-02-24T11:19:19.557Z,61.57
2018-02-24T11:21:47.101Z,69.63
2018-02-24T11:24:14.709Z,68.07
2018-02-24T11:26:43.060Z,71.17
2018-02-24T11:29:12.090Z,65.93
2018-02-24T11:31:39.675Z,80.00
2018-02-24T11:34:08.202Z,143.13
2018-02-24T11:36:35.790Z,141.60
2018-02-24T11:39:03.624Z,85.33
2018-02-24T11:41:31.195Z,111.83
2018-02-24T11:43:58.817Z,78.57
2018-02-24T11:46:26.395Z,77.70
2018-02-24T11:48:54.041Z,81.53
2018-02-24T11:51:21.628Z,75.03
2018-02-24T11:53:49.216Z,69.07
2018-02-24T11:56:16.755Z,70.17
2018-02-24T11:58:45.090Z,64.40
2018-02-24T12:01:12.671Z,61.77
2018-02-24T12:03:40.291Z,61.13
2018-02-24T12:06:07.843Z,66.40
2018-02-24T12:08:35.436Z,64.10
2018-02-24T12:11:02.983Z,62.00
2018-02-24T12:13:30.572Z,63.97
2018-02-24T12:15:58.111Z,56.97
2018-02-24T12:18:25.692Z,60.80
2018-02-24T12:20:53.225Z,89.07
2018-02-24T12:23:20.816Z,78.87
2018-02-24T12:25:48.411Z,64.17
2018-02-24T12:28:15.952Z,66.63
2018-02-24T12:30:43.545Z,74.10
2018-02-24T12:33:12.124Z,70.67
2018-02-24T12:35:39.693Z,63.27
2018-02-24T12:38:07.307Z,59.10
2018-02-24T12:40:34.910Z,63.43
2018-02-24T12:43:02.482Z,65.30
2018-02-24T12:45:30.127Z,71.40
2018-02-24T12:47:57.673Z,75.63
2018-02-24T12:50:25.320Z,67.97
2018-02-24T12:52:53.041Z,66.90
2018-02-24T12:55:21.764Z,78.20
2018-02-24T12:57:49.427Z,69.10
2018-02-24T13:00:16.998Z,69.13
2018-02-24T13:02:44.613Z,65.33
2018-02-24T13:05:12.163Z,83.40
2018-02-24T13:07:40.274Z,69.90
2018-02-24T13:10:07.818Z,71.17
2018-02-24T13:12:35.393Z,73.47
2018-02-24T13:15:03.796Z,125.10
2018-02-24T13:17:31.370Z,81.10
2018-02-24T13:19:58.913Z,76.53
2018-02-24T13:22:26.482Z,79.27
2018-02-24T13:24:54.994Z,86.00
2018-02-24T13:27:22.652Z,169.77
2018-02-24T13:29:50.195Z,89.67
2018-02-24T13:32:18.505Z,80.30
2018-02-24T13:34:46.122Z,81.03
2018-02-24T13:37:13.687Z,87.10
2018-02-24T13:39:41.236Z,90.67
2018-02-24T13:42:08.889Z,78.90
2018-02-24T13:44:36.565Z,80.20
2018-02-24T13:47:04.196Z,78.50
2018-02-24T13:49:31.725Z,68.77
2018-02-24T13:51:59.278Z,70.70
2018-02-24T13:54:26.872Z,71.53
2018-02-24T13:56:54.405Z,71.80
2018-02-24T13:59:21.948Z,78.37
2018-02-24T14:01:49.527Z,80.30
2018-02-24T14:04:17.140Z,69.97
2018-02-24T14:06:44.699Z,80.27
2018-02-24T14:09:12.234Z,73.90
2018-02-24T14:11:39.799Z,85.07
2018-02-24T14:14:07.357Z,98.87
2018-02-24T14:16:34.948Z,80.23
2018-02-24T14:19:03.283Z,76.90
2018-02-24T14:21:30.866Z,71.10
2018-02-24T14:23:58.674Z,79.50
2018-02-24T14:26:27.154Z,78.07
2018-02-24T14:28:55.498Z,69.97
2018-02-24T14:31:23.927Z,69.03
2018-02-24T14:33:52.908Z,63.13
2018-02-24T14:36:21.464Z,66.23
2018-02-24T14:38:49.093Z,61.37
2018-02-24T14:41:16.770Z,64.83
2018-02-24T14:43:44.367Z,67.60
2018-02-24T14:46:11.951Z,72.37
2018-02-24T14:48:39.489Z,74.10
2018-02-24T14:51:07.156Z,60.60
2018-02-24T14:53:34.700Z,63.20
2018-02-24T14:56:02.244Z,64.37
2018-02-24T14:58:29.830Z,74.13
2018-02-24T15:00:57.476Z,69.73
2018-02-24T15:03:25.060Z,72.30
2018-02-24T15:05:52.775Z,69.97
2018-02-24T15:08:21.108Z,75.23
2018-02-24T15:10:52.643Z,73.53
2018-02-24T15:13:20.243Z,70.10
2018-02-24T15:15:47.779Z,73.37
2018-02-24T15:18:16.874Z,68.07
2018-02-24T15:20:44.435Z,83.97
2018-02-24T15:23:12.097Z,84.47
2018-02-24T15:25:41.203Z,77.53
2018-02-24T15:28:09.558Z,71.13
2018-02-24T15:30:37.237Z,86.97
2018-02-24T15:33:04.889Z,78.63
2018-02-24T15:35:34.305Z,70.27
2018-02-24T15:38:02.766Z,79.43
2018-02-24T15:40:30.364Z,68.30
2018-02-24T15:42:57.940Z,80.03
2018-02-24T15:45:25.592Z,85.87
2018-02-24T15:47:53.352Z,101.47
2018-02-24T15:50:21.168Z,98.90
2018-02-24T15:52:48.855Z,108.95
2018-02-24T15:55:16.511Z,103.65
2018-02-24T15:57:46.081Z,108.23
2018-02-24T16:00:14.244Z,115.68
2018-02-24T16:02:41.839Z,126.90
2018-02-24T16:05:09.415Z,125.22
2018-02-24T16:07:37.084Z,126.07
2018-02-24T16:10:04.676Z,101.38
2018-02-24T16:12:32.489Z,114.57
2018-02-24T16:15:00.102Z,131.40
2018-02-24T16:17:27.813Z,144.20
2018-02-24T16:19:56.188Z,131.07
2018-02-24T16:22:23.808Z,131.73
2018-02-24T16:24:51.406Z,152.33
2018-02-24T16:27:18.952Z,138.53
2018-02-24T16:29:47.531Z,135.83
2018-02-24T16:32:15.166Z,118.23
2018-02-24T16:34:42.742Z,153.03
2018-02-24T16:37:10.336Z,155.77
2018-02-24T16:39:37.967Z,140.20
2018-02-24T16:42:05.516Z,136.83
2018-02-24T16:44:33.104Z,139.07
2018-02-24T16:47:00.650Z,131.33
2018-02-24T16:49:29.385Z,156.00
2018-02-24T16:51:57.008Z,144.33
2018-02-24T16:54:24.567Z,147.80
2018-02-24T16:56:52.160Z,163.30
2018-02-24T16:59:19.806Z,149.10
2018-02-24T17:01:48.390Z,155.77
2018-02-24T17:04:15.926Z,154.17
2018-02-24T17:06:44.390Z,170.87
2018-02-24T17:09:12.111Z,155.13
2018-02-24T17:11:40.700Z,144.67
2018-02-24T17:14:08.488Z,158.87
2018-02-24T17:16:36.207Z,164.83
2018-02-24T17:19:03.799Z,164.83
2018-02-24T17:21:31.382Z,168.87
2018-02-24T17:23:59.932Z,158.90
2018-02-24T17:26:28.303Z,168.10
2018-02-24T17:28:57.029Z,183.07
2018-02-24T17:31:24.635Z,183.63
2018-02-24T17:33:53.114Z,181.40
2018-02-24T17:36:20.764Z,184.73
2018-02-24T17:38:48.403Z,215.17
2018-02-24T17:41:17.795Z,210.87
2018-02-24T17:43:45.980Z,200.90
2018-02-24T17:46:13.570Z,182.37
2018-02-24T17:48:41.316Z,180.20
2018-02-24T17:51:08.894Z,183.43
2018-02-24T17:53:36.677Z,178.03
2018-02-24T17:56:04.228Z,198.23
2018-02-24T17:58:31.822Z,195.23
2018-02-24T18:00:59.380Z,176.07
2018-02-24T18:03:26.999Z,184.53
2018-02-24T18:05:54.652Z,171.37
2018-02-24T18:08:22.216Z,168.17
2018-02-24T18:10:50.497Z,161.83
2018-02-24T18:13:18.490Z,163.90
2018-02-24T18:15:46.254Z,175.03
2018-02-24T18:18:14.424Z,165.80
2018-02-24T18:20:42.115Z,177.67
2018-02-24T18:23:09.792Z,157.90
2018-02-24T18:25:37.960Z,157.77
2018-02-24T18:28:05.612Z,152.27
2018-02-24T18:30:34.108Z,148.53
2018-02-24T18:33:01.706Z,157.37
2018-02-24T18:35:29.294Z,141.60
2018-02-24T18:37:57.260Z,143.17
2018-02-24T18:40:24.818Z,137.77
2018-02-24T18:42:52.453Z,121.40
2018-02-24T18:45:20.061Z,122.67
2018-02-24T18:47:47.903Z,119.10
2018-02-24T18:50:16.525Z,94.50
2018-02-24T18:52:44.223Z,111.73
2018-02-24T18:55:11.845Z,99.53
2018-02-24T18:57:40.391Z,95.07
2018-02-24T19:00:08.011Z,101.37
2018-02-24T19:02:37.021Z,94.87
2018-02-24T19:05:04.581Z,88.57
2018-02-24T19:07:32.146Z,93.00
2018-02-24T19:09:59.722Z,97.47
2018-02-24T19:12:27.268Z,86.77
2018-02-24T19:14:54.872Z,81.47
2018-02-24T19:17:22.445Z,85.03
2018-02-24T19:19:50.035Z,77.60
2018-02-24T19:22:17.638Z,76.47
2018-02-24T19:24:45.312Z,78.67
2018-02-24T19:27:12.978Z,84.97
2018-02-24T19:29:40.749Z,110.50
2018-02-24T19:32:08.288Z,98.60
2018-02-24T19:34:35.899Z,96.67
2018-02-24T19:37:03.532Z,95.13
2018-02-24T19:39:31.375Z,94.93
2018-02-24T19:41:59.057Z,98.37
2018-02-24T19:44:26.758Z,97.77
2018-02-24T19:46:54.319Z,103.47
2018-02-24T19:49:21.866Z,96.57
2018-02-24T19:51:51.915Z,93.13
2018-02-24T19:54:19.513Z,78.30
2018-02-24T19:56:48.048Z,80.80
2018-02-24T19:59:15.755Z,84.43
2018-02-24T20:01:43.286Z,75.07
2018-02-24T20:04:11.063Z,79.30
2018-02-24T20:06:38.598Z,81.13
2018-02-24T20:09:06.257Z,81.77
2018-02-24T20:11:33.910Z,76.47
2018-02-24T20:14:01.589Z,62.20
2018-02-24T20:16:29.304Z,66.57
2018-02-24T20:18:57.107Z,66.60
2018-02-24T20:21:24.768Z,65.93
2018-02-24T20:23:52.380Z,60.77
2018-02-24T20:26:19.924Z,60.23
2018-02-24T20:28:47.503Z,60.73
2018-02-24T20:31:15.211Z,66.20
2018-02-24T20:33:42.819Z,62.30
2018-02-24T20:36:10.420Z,57.73
2018-02-24T20:38:38.134Z,55.27
2018-02-24T20:41:05.791Z,56.47
2018-02-24T20:43:33.510Z,60.60
2018-02-24T20:46:01.331Z,56.53
2018-02-24T20:48:28.871Z,56.57
2018-02-24T20:50:56.852Z,55.97
2018-02-24T20:53:24.553Z,52.90
2018-02-24T20:55:52.636Z,57.83
2018-02-24T20:58:22.720Z,55.80
2018-02-24T21:00:51.139Z,57.40
2018-02-24T21:03:20.533Z,51.63
2018-02-24T21:05:53.010Z,51.70
2018-02-24T21:08:20.543Z,49.07
2018-02-24T21:10:48.491Z,52.60
2018-02-24T21:13:16.041Z,51.87
2018-02-24T21:15:43.575Z,52.23
2018-02-24T21:18:11.159Z,49.27
2018-02-24T21:20:39.499Z,52.73
2018-02-24T21:23:07.144Z,51.97
2018-02-24T21:25:34.698Z,52.93
2018-02-24T21:28:03.207Z,60.37
2018-02-24T21:30:30.742Z,59.00
2018-02-24T21:32:58.323Z,57.40
2018-02-24T21:35:25.927Z,62.10
2018-02-24T21:37:53.830Z,56.30
2018-02-24T21:40:21.444Z,59.10
2018-02-24T21:42:49.041Z,56.23
2018-02-24T21:45:17.513Z,62.00
2018-02-24T21:47:45.091Z,49.80
2018-02-24T21:50:12.676Z,51.87
2018-02-24T21:52:40.263Z,54.37
2018-02-24T21:55:07.808Z,54.37
2018-02-24T21:57:35.375Z,55.37
2018-02-24T22:00:03.051Z,53.83
2018-02-24T22:02:30.580Z,50.93
2018-02-24T22:04:58.965Z,47.60
2018-02-24T22:07:27.354Z,50.17
2018-02-24T22:09:55.844Z,50.17
2018-02-24T22:12:23.394Z,47.10
2018-02-24T22:14:50.989Z,55.30
2018-02-24T22:17:18.526Z,61.73
2018-02-24T22:19:46.175Z,56.80
2018-02-24T22:22:13.741Z,53.73
2018-02-24T22:24:41.339Z,56.73
2018-02-24T22:27:08.980Z,61.73
2018-02-24T22:29:36.584Z,70.93
2018-02-24T22:32:04.171Z,77.53
2018-02-24T22:34:31.715Z,70.63
2018-02-24T22:36:59.310Z,83.60
2018-02-24T22:39:26.908Z,73.67
2018-02-24T22:41:54.548Z,80.40
2018-02-24T22:44:22.099Z,72.93
2018-02-24T22:46:49.688Z,88.03
2018-02-24T22:49:17.248Z,81.07
2018-02-24T22:51:44.782Z,73.47
2018-02-24T22:54:12.377Z,77.07
2018-02-24T22:56:39.972Z,85.73
2018-02-24T22:59:07.564Z,95.33
2018-02-24T23:01:35.287Z,87.00
2018-02-24T23:04:02.819Z,78.33
2018-02-24T23:06:30.370Z,80.73
2018-02-24T23:08:58.336Z,92.30
2018-02-24T23:11:25.876Z,89.10
2018-02-24T23:13:53.470Z,109.60
2018-02-24T23:16:21.460Z,96.70
2018-02-24T23:18:49.044Z,104.17
2018-02-24T23:21:16.891Z,111.47
2018-02-24T23:23:44.533Z,100.70
2018-02-24T23:26:12.105Z,98.50
2018-02-24T23:28:39.639Z,108.27
2018-02-24T23:31:07.203Z,114.97
2018-02-24T23:33:34.782Z,111.73
2018-02-24T23:36:02.343Z,92.97
2018-02-24T23:38:29.880Z,83.13
2018-02-24T23:40:57.487Z,90.87
2018-02-24T23:43:25.020Z,92.93
2018-02-24T23:45:52.593Z,82.67
2018-02-24T23:48:20.164Z,78.50
2018-02-24T23:50:47.781Z,71.80
2018-02-24T23:53:15.336Z,75.33
2018-02-24T23:55:42.928Z,77.17
2018-02-24T23:58:10.524Z,72.83
